sensor_id;sensor_type;location;lat;lon;timestamp;P1;durP1;ratioP1;P2;durP2;ratioP2
29938;SDS011;16799;50.844;5.304;2022-08-19T00:01:51;30.33;;;22.50;;
29938;SDS011;16799;50.844;5.304;2022-08-19T00:04:20;22.30;;;19.93;;
29938;SDS011;16799;50.844;5.304;2022-08-19T00:06:48;26.80;;;20.80;;
29938;SDS011;16799;50.844;5.304;2022-08-19T00:09:15;23.77;;;21.37;;
29938;SDS011;16799;50.844;5.304;2022-08-19T00:11:42;23.33;;;20.90;;
29938;SDS011;16799;50.844;5.304;2022-08-19T00:14:09;26.67;;;23.83;;
29938;SDS011;16799;50.844;5.304;2022-08-19T00:16:37;23.37;;;20.97;;
29938;SDS011;16799;50.844;5.304;2022-08-19T00:19:05;24.77;;;22.07;;
29938;SDS011;16799;50.844;5.304;2022-08-19T00:21:31;26.30;;;23.60;;
29938;SDS011;16799;50.844;5.304;2022-08-19T00:23:56;27.73;;;23.87;;
29938;SDS011;16799;50.844;5.304;2022-08-19T00:26:23;32.87;;;23.73;;
29938;SDS011;16799;50.844;5.304;2022-08-19T00:28:50;24.73;;;22.23;;
29938;SDS011;16799;50.844;5.304;2022-08-19T00:31:16;31.37;;;25.10;;
29938;SDS011;16799;50.844;5.304;2022-08-19T00:33:42;24.17;;;21.57;;
29938;SDS011;16799;50.844;5.304;2022-08-19T00:36:08;24.03;;;21.60;;
29938;SDS011;16799;50.844;5.304;2022-08-19T00:38:35;24.73;;;22.27;;
29938;SDS011;16799;50.844;5.304;2022-08-19T00:41:03;22.27;;;20.13;;
29938;SDS011;16799;50.844;5.304;2022-08-19T00:43:32;24.37;;;21.87;;
29938;SDS011;16799;50.844;5.304;2022-08-19T00:45:58;25.03;;;21.57;;
29938;SDS011;16799;50.844;5.304;2022-08-19T00:48:24;24.93;;;22.00;;
29938;SDS011;16799;50.844;5.304;2022-08-19T00:50:50;22.67;;;18.90;;
29938;SDS011;16799;50.844;5.304;2022-08-19T00:53:20;24.10;;;21.43;;
29938;SDS011;16799;50.844;5.304;2022-08-19T00:55:48;24.10;;;20.90;;
29938;SDS011;16799;50.844;5.304;2022-08-19T00:58:16;24.97;;;22.50;;
29938;SDS011;16799;50.844;5.304;2022-08-19T01:00:44;28.27;;;22.80;;
29938;SDS011;16799;50.844;5.304;2022-08-19T01:03:12;25.47;;;20.90;;
29938;SDS011;16799;50.844;5.304;2022-08-19T01:05:39;28.57;;;25.57;;
29938;SDS011;16799;50.844;5.304;2022-08-19T01:08:07;28.60;;;25.50;;
29938;SDS011;16799;50.844;5.304;2022-08-19T01:10:37;33.57;;;26.90;;
29938;SDS011;16799;50.844;5.304;2022-08-19T01:13:08;37.37;;;27.57;;
29938;SDS011;16799;50.844;5.304;2022-08-19T01:15:45;38.90;;;29.50;;
29938;SDS011;16799;50.844;5.304;2022-08-19T01:18:14;34.07;;;28.77;;
29938;SDS011;16799;50.844;5.304;2022-08-19T01:20:42;36.37;;;30.97;;
29938;SDS011;16799;50.844;5.304;2022-08-19T01:23:08;38.90;;;33.23;;
29938;SDS011;16799;50.844;5.304;2022-08-19T01:25:44;34.87;;;29.10;;
29938;SDS011;16799;50.844;5.304;2022-08-19T01:28:23;38.30;;;32.60;;
29938;SDS011;16799;50.844;5.304;2022-08-19T01:30:53;39.13;;;31.60;;
29938;SDS011;16799;50.844;5.304;2022-08-19T01:33:20;43.80;;;34.10;;
29938;SDS011;16799;50.844;5.304;2022-08-19T01:35:46;41.73;;;33.80;;
29938;SDS011;16799;50.844;5.304;2022-08-19T01:38:24;42.10;;;34.33;;
29938;SDS011;16799;50.844;5.304;2022-08-19T01:40:51;45.43;;;33.60;;
29938;SDS011;16799;50.844;5.304;2022-08-19T01:43:18;45.67;;;36.10;;
29938;SDS011;16799;50.844;5.304;2022-08-19T01:45:44;46.43;;;37.50;;
29938;SDS011;16799;50.844;5.304;2022-08-19T01:48:11;55.63;;;33.67;;
29938;SDS011;16799;50.844;5.304;2022-08-19T01:50:37;51.70;;;37.53;;
29938;SDS011;16799;50.844;5.304;2022-08-19T01:53:04;48.03;;;36.70;;
29938;SDS011;16799;50.844;5.304;2022-08-19T01:55:32;52.70;;;38.27;;
29938;SDS011;16799;50.844;5.304;2022-08-19T01:58:00;56.83;;;40.53;;
29938;SDS011;16799;50.844;5.304;2022-08-19T02:00:29;57.50;;;41.03;;
29938;SDS011;16799;50.844;5.304;2022-08-19T02:02:57;58.87;;;41.77;;
29938;SDS011;16799;50.844;5.304;2022-08-19T02:05:23;52.13;;;41.70;;
29938;SDS011;16799;50.844;5.304;2022-08-19T02:07:48;54.83;;;42.60;;
29938;SDS011;16799;50.844;5.304;2022-08-19T02:10:16;45.33;;;38.47;;
29938;SDS011;16799;50.844;5.304;2022-08-19T02:12:46;50.70;;;40.37;;
29938;SDS011;16799;50.844;5.304;2022-08-19T02:15:13;54.27;;;40.70;;
29938;SDS011;16799;50.844;5.304;2022-08-19T02:17:39;56.47;;;40.33;;
29938;SDS011;16799;50.844;5.304;2022-08-19T02:20:05;53.00;;;40.10;;
29938;SDS011;16799;50.844;5.304;2022-08-19T02:22:32;55.37;;;42.17;;
29938;SDS011;16799;50.844;5.304;2022-08-19T02:24:58;53.07;;;39.93;;
29938;SDS011;16799;50.844;5.304;2022-08-19T02:27:24;56.40;;;39.50;;
29938;SDS011;16799;50.844;5.304;2022-08-19T02:29:50;59.90;;;40.83;;
29938;SDS011;16799;50.844;5.304;2022-08-19T02:32:17;56.40;;;44.27;;
29938;SDS011;16799;50.844;5.304;2022-08-19T02:34:44;61.27;;;43.67;;
29938;SDS011;16799;50.844;5.304;2022-08-19T02:37:11;64.83;;;43.47;;
29938;SDS011;16799;50.844;5.304;2022-08-19T02:39:56;64.97;;;46.23;;
29938;SDS011;16799;50.844;5.304;2022-08-19T02:42:23;73.10;;;47.17;;
29938;SDS011;16799;50.844;5.304;2022-08-19T02:44:48;79.50;;;49.60;;
29938;SDS011;16799;50.844;5.304;2022-08-19T02:47:14;63.70;;;45.50;;
29938;SDS011;16799;50.844;5.304;2022-08-19T02:49:40;62.20;;;44.30;;
29938;SDS011;16799;50.844;5.304;2022-08-19T02:52:06;68.10;;;45.07;;
29938;SDS011;16799;50.844;5.304;2022-08-19T02:54:32;55.97;;;39.50;;
29938;SDS011;16799;50.844;5.304;2022-08-19T02:56:58;69.90;;;44.70;;
29938;SDS011;16799;50.844;5.304;2022-08-19T02:59:24;62.73;;;44.20;;
29938;SDS011;16799;50.844;5.304;2022-08-19T03:01:51;57.00;;;42.40;;
29938;SDS011;16799;50.844;5.304;2022-08-19T03:04:17;63.27;;;44.07;;
29938;SDS011;16799;50.844;5.304;2022-08-19T03:06:45;71.37;;;48.20;;
29938;SDS011;16799;50.844;5.304;2022-08-19T03:09:12;71.10;;;44.50;;
29938;SDS011;16799;50.844;5.304;2022-08-19T03:11:38;67.50;;;47.27;;
29938;SDS011;16799;50.844;5.304;2022-08-19T03:14:04;63.87;;;44.87;;
29938;SDS011;16799;50.844;5.304;2022-08-19T03:16:33;74.23;;;43.43;;
29938;SDS011;16799;50.844;5.304;2022-08-19T03:19:00;63.80;;;44.77;;
29938;SDS011;16799;50.844;5.304;2022-08-19T03:21:27;70.13;;;47.00;;
29938;SDS011;16799;50.844;5.304;2022-08-19T03:23:55;77.67;;;46.80;;
29938;SDS011;16799;50.844;5.304;2022-08-19T03:26:22;67.03;;;46.13;;
29938;SDS011;16799;50.844;5.304;2022-08-19T03:28:47;74.53;;;47.53;;
29938;SDS011;16799;50.844;5.304;2022-08-19T03:31:15;70.23;;;47.90;;
29938;SDS011;16799;50.844;5.304;2022-08-19T03:33:43;76.00;;;48.17;;
29938;SDS011;16799;50.844;5.304;2022-08-19T03:36:11;76.43;;;46.30;;
29938;SDS011;16799;50.844;5.304;2022-08-19T03:38:42;76.20;;;49.47;;
29938;SDS011;16799;50.844;5.304;2022-08-19T03:41:11;78.50;;;49.40;;
29938;SDS011;16799;50.844;5.304;2022-08-19T03:43:40;91.57;;;53.87;;
29938;SDS011;16799;50.844;5.304;2022-08-19T03:46:08;79.40;;;51.00;;
29938;SDS011;16799;50.844;5.304;2022-08-19T03:48:40;75.30;;;49.77;;
29938;SDS011;16799;50.844;5.304;2022-08-19T03:51:08;76.13;;;51.00;;
29938;SDS011;16799;50.844;5.304;2022-08-19T03:53:44;88.03;;;51.10;;
29938;SDS011;16799;50.844;5.304;2022-08-19T03:56:11;76.00;;;50.23;;
29938;SDS011;16799;50.844;5.304;2022-08-19T03:58:38;98.67;;;56.17;;
29938;SDS011;16799;50.844;5.304;2022-08-19T04:01:07;79.53;;;49.43;;
29938;SDS011;16799;50.844;5.304;2022-08-19T04:03:38;83.37;;;50.13;;
29938;SDS011;16799;50.844;5.304;2022-08-19T04:06:15;87.70;;;54.40;;
29938;SDS011;16799;50.844;5.304;2022-08-19T04:08:44;94.13;;;52.40;;
29938;SDS011;16799;50.844;5.304;2022-08-19T04:11:12;89.83;;;53.80;;
29938;SDS011;16799;50.844;5.304;2022-08-19T04:13:39;89.00;;;53.47;;
29938;SDS011;16799;50.844;5.304;2022-08-19T04:16:06;92.97;;;55.67;;
29938;SDS011;16799;50.844;5.304;2022-08-19T04:18:33;97.47;;;53.20;;
29938;SDS011;16799;50.844;5.304;2022-08-19T04:20:59;84.43;;;50.43;;
29938;SDS011;16799;50.844;5.304;2022-08-19T04:23:26;88.23;;;52.27;;
29938;SDS011;16799;50.844;5.304;2022-08-19T04:25:53;92.80;;;54.30;;
29938;SDS011;16799;50.844;5.304;2022-08-19T04:28:19;88.77;;;52.80;;
29938;SDS011;16799;50.844;5.304;2022-08-19T04:30:47;98.83;;;55.47;;
29938;SDS011;16799;50.844;5.304;2022-08-19T04:33:15;111.73;;;58.90;;
29938;SDS011;16799;50.844;5.304;2022-08-19T04:35:45;98.50;;;53.40;;
29938;SDS011;16799;50.844;5.304;2022-08-19T04:38:12;93.47;;;57.00;;
29938;SDS011;16799;50.844;5.304;2022-08-19T04:40:45;104.60;;;54.33;;
29938;SDS011;16799;50.844;5.304;2022-08-19T04:43:31;74.87;;;44.33;;
29938;SDS011;16799;50.844;5.304;2022-08-19T04:46:04;73.97;;;44.13;;
29938;SDS011;16799;50.844;5.304;2022-08-19T04:48:31;70.10;;;43.80;;
29938;SDS011;16799;50.844;5.304;2022-08-19T04:50:57;69.33;;;44.03;;
29938;SDS011;16799;50.844;5.304;2022-08-19T04:53:30;69.00;;;45.43;;
29938;SDS011;16799;50.844;5.304;2022-08-19T04:55:58;68.00;;;43.70;;
29938;SDS011;16799;50.844;5.304;2022-08-19T04:58:26;61.30;;;38.90;;
29938;SDS011;16799;50.844;5.304;2022-08-19T05:00:52;63.43;;;41.60;;
29938;SDS011;16799;50.844;5.304;2022-08-19T05:03:19;76.40;;;41.60;;
29938;SDS011;16799;50.844;5.304;2022-08-19T05:05:46;67.33;;;41.70;;
29938;SDS011;16799;50.844;5.304;2022-08-19T05:08:14;67.47;;;42.90;;
29938;SDS011;16799;50.844;5.304;2022-08-19T05:10:45;62.57;;;40.10;;
29938;SDS011;16799;50.844;5.304;2022-08-19T05:13:13;55.93;;;37.57;;
29938;SDS011;16799;50.844;5.304;2022-08-19T05:15:40;66.43;;;39.17;;
29938;SDS011;16799;50.844;5.304;2022-08-19T05:18:06;73.33;;;41.13;;
29938;SDS011;16799;50.844;5.304;2022-08-19T05:20:51;68.20;;;40.20;;
29938;SDS011;16799;50.844;5.304;2022-08-19T05:23:35;81.67;;;47.50;;
29938;SDS011;16799;50.844;5.304;2022-08-19T05:26:00;96.17;;;47.97;;
29938;SDS011;16799;50.844;5.304;2022-08-19T05:28:26;90.33;;;47.40;;
29938;SDS011;16799;50.844;5.304;2022-08-19T05:30:52;79.73;;;45.53;;
29938;SDS011;16799;50.844;5.304;2022-08-19T05:33:20;80.00;;;50.30;;
29938;SDS011;16799;50.844;5.304;2022-08-19T05:35:46;88.70;;;48.70;;
29938;SDS011;16799;50.844;5.304;2022-08-19T05:38:14;78.57;;;46.27;;
29938;SDS011;16799;50.844;5.304;2022-08-19T05:40:41;80.40;;;47.10;;
29938;SDS011;16799;50.844;5.304;2022-08-19T05:43:10;81.43;;;48.70;;
29938;SDS011;16799;50.844;5.304;2022-08-19T05:45:40;83.27;;;47.17;;
29938;SDS011;16799;50.844;5.304;2022-08-19T05:48:07;83.40;;;48.63;;
29938;SDS011;16799;50.844;5.304;2022-08-19T05:50:36;95.13;;;49.40;;
29938;SDS011;16799;50.844;5.304;2022-08-19T05:53:03;74.87;;;44.50;;
29938;SDS011;16799;50.844;5.304;2022-08-19T05:55:29;86.27;;;47.03;;
29938;SDS011;16799;50.844;5.304;2022-08-19T05:57:54;78.20;;;47.43;;
29938;SDS011;16799;50.844;5.304;2022-08-19T06:00:20;82.80;;;48.60;;
29938;SDS011;16799;50.844;5.304;2022-08-19T06:02:46;75.33;;;41.40;;
29938;SDS011;16799;50.844;5.304;2022-08-19T06:05:11;67.90;;;45.20;;
29938;SDS011;16799;50.844;5.304;2022-08-19T06:07:38;66.20;;;42.87;;
29938;SDS011;16799;50.844;5.304;2022-08-19T06:10:05;66.93;;;40.50;;
29938;SDS011;16799;50.844;5.304;2022-08-19T06:12:34;75.23;;;39.87;;
29938;SDS011;16799;50.844;5.304;2022-08-19T06:15:01;68.67;;;41.77;;
29938;SDS011;16799;50.844;5.304;2022-08-19T06:17:29;69.33;;;39.47;;
29938;SDS011;16799;50.844;5.304;2022-08-19T06:19:55;66.13;;;42.57;;
29938;SDS011;16799;50.844;5.304;2022-08-19T06:22:21;72.37;;;40.40;;
29938;SDS011;16799;50.844;5.304;2022-08-19T06:24:47;71.20;;;41.77;;
29938;SDS011;16799;50.844;5.304;2022-08-19T06:27:12;65.53;;;38.87;;
29938;SDS011;16799;50.844;5.304;2022-08-19T06:29:38;66.80;;;40.33;;
29938;SDS011;16799;50.844;5.304;2022-08-19T06:32:04;58.90;;;36.27;;
29938;SDS011;16799;50.844;5.304;2022-08-19T06:34:31;65.93;;;37.50;;
29938;SDS011;16799;50.844;5.304;2022-08-19T06:36:58;57.67;;;37.50;;
29938;SDS011;16799;50.844;5.304;2022-08-19T06:39:27;63.73;;;38.60;;
29938;SDS011;16799;50.844;5.304;2022-08-19T06:41:56;65.57;;;40.07;;
29938;SDS011;16799;50.844;5.304;2022-08-19T06:44:25;69.53;;;36.77;;
29938;SDS011;16799;50.844;5.304;2022-08-19T06:46:53;63.87;;;37.70;;
29938;SDS011;16799;50.844;5.304;2022-08-19T06:49:20;70.23;;;36.50;;
29938;SDS011;16799;50.844;5.304;2022-08-19T06:51:46;64.57;;;35.43;;
29938;SDS011;16799;50.844;5.304;2022-08-19T06:54:13;57.27;;;34.60;;
29938;SDS011;16799;50.844;5.304;2022-08-19T06:56:40;56.33;;;32.60;;
29938;SDS011;16799;50.844;5.304;2022-08-19T06:59:07;64.33;;;34.10;;
29938;SDS011;16799;50.844;5.304;2022-08-19T07:01:36;56.13;;;33.17;;
29938;SDS011;16799;50.844;5.304;2022-08-19T07:04:03;61.80;;;32.77;;
29938;SDS011;16799;50.844;5.304;2022-08-19T07:06:30;48.23;;;31.57;;
29938;SDS011;16799;50.844;5.304;2022-08-19T07:08:56;45.17;;;30.00;;
29938;SDS011;16799;50.844;5.304;2022-08-19T07:11:23;46.87;;;30.97;;
29938;SDS011;16799;50.844;5.304;2022-08-19T07:13:50;51.20;;;31.67;;
29938;SDS011;16799;50.844;5.304;2022-08-19T07:16:18;49.73;;;30.70;;
29938;SDS011;16799;50.844;5.304;2022-08-19T07:18:44;56.37;;;30.87;;
29938;SDS011;16799;50.844;5.304;2022-08-19T07:21:16;58.47;;;32.53;;
29938;SDS011;16799;50.844;5.304;2022-08-19T07:23:44;44.40;;;30.10;;
29938;SDS011;16799;50.844;5.304;2022-08-19T07:26:16;53.53;;;31.33;;
29938;SDS011;16799;50.844;5.304;2022-08-19T07:28:48;46.67;;;30.03;;
29938;SDS011;16799;50.844;5.304;2022-08-19T07:31:15;51.73;;;29.77;;
29938;SDS011;16799;50.844;5.304;2022-08-19T07:33:46;41.30;;;27.20;;
29938;SDS011;16799;50.844;5.304;2022-08-19T07:36:14;47.03;;;24.97;;
29938;SDS011;16799;50.844;5.304;2022-08-19T07:38:43;39.27;;;25.90;;
29938;SDS011;16799;50.844;5.304;2022-08-19T07:41:13;34.47;;;23.77;;
29938;SDS011;16799;50.844;5.304;2022-08-19T07:43:46;44.60;;;23.00;;
29938;SDS011;16799;50.844;5.304;2022-08-19T07:46:13;25.70;;;20.10;;
29938;SDS011;16799;50.844;5.304;2022-08-19T07:48:40;31.27;;;21.00;;
29938;SDS011;16799;50.844;5.304;2022-08-19T07:51:08;35.17;;;20.30;;
29938;SDS011;16799;50.844;5.304;2022-08-19T07:53:35;34.13;;;23.03;;
29938;SDS011;16799;50.844;5.304;2022-08-19T07:56:02;32.03;;;20.70;;
29938;SDS011;16799;50.844;5.304;2022-08-19T07:58:30;36.07;;;19.27;;
29938;SDS011;16799;50.844;5.304;2022-08-19T08:01:00;21.30;;;17.60;;
29938;SDS011;16799;50.844;5.304;2022-08-19T08:03:27;32.17;;;17.87;;
29938;SDS011;16799;50.844;5.304;2022-08-19T08:06:13;34.80;;;18.63;;
29938;SDS011;16799;50.844;5.304;2022-08-19T08:08:59;17.50;;;14.67;;
29938;SDS011;16799;50.844;5.304;2022-08-19T08:11:41;24.00;;;16.93;;
29938;SDS011;16799;50.844;5.304;2022-08-19T08:14:17;26.80;;;17.30;;
29938;SDS011;16799;50.844;5.304;2022-08-19T08:16:45;22.63;;;15.93;;
29938;SDS011;16799;50.844;5.304;2022-08-19T08:19:11;21.80;;;15.00;;
29938;SDS011;16799;50.844;5.304;2022-08-19T08:21:40;20.93;;;16.10;;
29938;SDS011;16799;50.844;5.304;2022-08-19T08:24:06;28.07;;;16.30;;
29938;SDS011;16799;50.844;5.304;2022-08-19T08:26:32;21.27;;;16.10;;
29938;SDS011;16799;50.844;5.304;2022-08-19T08:28:57;25.00;;;15.80;;
29938;SDS011;16799;50.844;5.304;2022-08-19T08:31:23;30.00;;;17.90;;
29938;SDS011;16799;50.844;5.304;2022-08-19T08:33:49;20.97;;;16.30;;
29938;SDS011;16799;50.844;5.304;2022-08-19T08:36:15;21.03;;;15.30;;
29938;SDS011;16799;50.844;5.304;2022-08-19T08:38:41;26.63;;;17.20;;
29938;SDS011;16799;50.844;5.304;2022-08-19T08:41:28;22.83;;;15.37;;
29938;SDS011;16799;50.844;5.304;2022-08-19T08:44:02;29.67;;;19.10;;
29938;SDS011;16799;50.844;5.304;2022-08-19T08:46:37;29.27;;;17.40;;
29938;SDS011;16799;50.844;5.304;2022-08-19T08:49:26;26.80;;;19.27;;
29938;SDS011;16799;50.844;5.304;2022-08-19T08:52:21;28.80;;;20.43;;
29938;SDS011;16799;50.844;5.304;2022-08-19T08:54:53;30.07;;;20.17;;
29938;SDS011;16799;50.844;5.304;2022-08-19T08:59:50;25.83;;;19.63;;
29938;SDS011;16799;50.844;5.304;2022-08-19T09:02:18;26.40;;;18.50;;
29938;SDS011;16799;50.844;5.304;2022-08-19T09:04:44;29.87;;;20.47;;
29938;SDS011;16799;50.844;5.304;2022-08-19T09:10:09;26.60;;;18.43;;
29938;SDS011;16799;50.844;5.304;2022-08-19T09:12:42;24.23;;;17.60;;
29938;SDS011;16799;50.844;5.304;2022-08-19T09:15:31;27.10;;;17.80;;
29938;SDS011;16799;50.844;5.304;2022-08-19T09:18:06;22.57;;;18.00;;
29938;SDS011;16799;50.844;5.304;2022-08-19T09:20:33;26.73;;;14.77;;
29938;SDS011;16799;50.844;5.304;2022-08-19T09:22:59;19.97;;;15.40;;
29938;SDS011;16799;50.844;5.304;2022-08-19T09:25:25;21.20;;;15.33;;
29938;SDS011;16799;50.844;5.304;2022-08-19T09:27:51;16.60;;;12.20;;
29938;SDS011;16799;50.844;5.304;2022-08-19T09:30:27;14.63;;;10.77;;
29938;SDS011;16799;50.844;5.304;2022-08-19T09:32:55;17.60;;;12.00;;
29938;SDS011;16799;50.844;5.304;2022-08-19T09:35:22;12.63;;;10.67;;
29938;SDS011;16799;50.844;5.304;2022-08-19T09:37:49;18.97;;;13.97;;
29938;SDS011;16799;50.844;5.304;2022-08-19T09:40:16;11.83;;;9.87;;
29938;SDS011;16799;50.844;5.304;2022-08-19T09:42:43;14.80;;;11.10;;
29938;SDS011;16799;50.844;5.304;2022-08-19T09:45:12;12.20;;;10.17;;
29938;SDS011;16799;50.844;5.304;2022-08-19T09:47:42;11.77;;;10.37;;
29938;SDS011;16799;50.844;5.304;2022-08-19T09:50:08;10.27;;;8.97;;
29938;SDS011;16799;50.844;5.304;2022-08-19T09:52:36;15.23;;;7.70;;
29938;SDS011;16799;50.844;5.304;2022-08-19T09:55:05;10.10;;;7.10;;
29938;SDS011;16799;50.844;5.304;2022-08-19T09:57:31;8.43;;;7.67;;
29938;SDS011;16799;50.844;5.304;2022-08-19T09:59:57;10.50;;;7.47;;
29938;SDS011;16799;50.844;5.304;2022-08-19T10:02:23;10.67;;;6.80;;
29938;SDS011;16799;50.844;5.304;2022-08-19T10:04:49;7.03;;;6.43;;
29938;SDS011;16799;50.844;5.304;2022-08-19T10:07:33;7.93;;;6.90;;
29938;SDS011;16799;50.844;5.304;2022-08-19T10:10:00;7.47;;;6.77;;
29938;SDS011;16799;50.844;5.304;2022-08-19T10:12:26;11.37;;;6.80;;
29938;SDS011;16799;50.844;5.304;2022-08-19T10:14:51;8.50;;;6.10;;
29938;SDS011;16799;50.844;5.304;2022-08-19T10:17:19;6.53;;;5.63;;
29938;SDS011;16799;50.844;5.304;2022-08-19T10:19:45;7.43;;;5.40;;
29938;SDS011;16799;50.844;5.304;2022-08-19T10:22:12;5.43;;;4.87;;
29938;SDS011;16799;50.844;5.304;2022-08-19T10:24:39;9.03;;;5.40;;
29938;SDS011;16799;50.844;5.304;2022-08-19T10:27:05;5.50;;;4.43;;
29938;SDS011;16799;50.844;5.304;2022-08-19T10:29:31;5.53;;;4.37;;
29938;SDS011;16799;50.844;5.304;2022-08-19T10:32:03;6.43;;;4.17;;
29938;SDS011;16799;50.844;5.304;2022-08-19T10:34:33;5.03;;;3.40;;
29938;SDS011;16799;50.844;5.304;2022-08-19T10:37:01;5.90;;;5.50;;
29938;SDS011;16799;50.844;5.304;2022-08-19T10:39:31;4.77;;;4.47;;
29938;SDS011;16799;50.844;5.304;2022-08-19T10:41:58;5.80;;;5.33;;
29938;SDS011;16799;50.844;5.304;2022-08-19T10:44:24;11.03;;;5.70;;
29938;SDS011;16799;50.844;5.304;2022-08-19T10:46:50;4.23;;;3.93;;
29938;SDS011;16799;50.844;5.304;2022-08-19T10:49:17;5.40;;;4.53;;
29938;SDS011;16799;50.844;5.304;2022-08-19T10:51:44;6.60;;;6.13;;
29938;SDS011;16799;50.844;5.304;2022-08-19T10:54:29;8.40;;;7.50;;
29938;SDS011;16799;50.844;5.304;2022-08-19T10:57:13;6.90;;;5.03;;
29938;SDS011;16799;50.844;5.304;2022-08-19T10:59:40;8.13;;;5.60;;
29938;SDS011;16799;50.844;5.304;2022-08-19T11:02:07;7.47;;;6.53;;
29938;SDS011;16799;50.844;5.304;2022-08-19T11:04:35;9.50;;;6.37;;
29938;SDS011;16799;50.844;5.304;2022-08-19T11:07:02;6.40;;;5.80;;
29938;SDS011;16799;50.844;5.304;2022-08-19T11:09:29;5.97;;;5.53;;
29938;SDS011;16799;50.844;5.304;2022-08-19T11:11:55;9.33;;;7.23;;
29938;SDS011;16799;50.844;5.304;2022-08-19T11:14:21;11.87;;;6.90;;
29938;SDS011;16799;50.844;5.304;2022-08-19T11:16:49;6.20;;;5.80;;
29938;SDS011;16799;50.844;5.304;2022-08-19T11:19:15;5.20;;;4.90;;
29938;SDS011;16799;50.844;5.304;2022-08-19T11:21:44;7.57;;;5.17;;
29938;SDS011;16799;50.844;5.304;2022-08-19T11:24:13;7.87;;;6.37;;
29938;SDS011;16799;50.844;5.304;2022-08-19T11:26:42;5.40;;;4.90;;
29938;SDS011;16799;50.844;5.304;2022-08-19T11:29:10;9.37;;;7.10;;
29938;SDS011;16799;50.844;5.304;2022-08-19T11:31:38;9.03;;;6.10;;
29938;SDS011;16799;50.844;5.304;2022-08-19T11:34:07;7.43;;;5.77;;
29938;SDS011;16799;50.844;5.304;2022-08-19T11:36:36;6.67;;;5.00;;
29938;SDS011;16799;50.844;5.304;2022-08-19T11:39:04;4.97;;;4.63;;
29938;SDS011;16799;50.844;5.304;2022-08-19T11:41:31;5.27;;;4.87;;
29938;SDS011;16799;50.844;5.304;2022-08-19T11:43:57;5.57;;;5.13;;
29938;SDS011;16799;50.844;5.304;2022-08-19T11:46:27;4.70;;;4.40;;
29938;SDS011;16799;50.844;5.304;2022-08-19T11:48:54;5.97;;;5.47;;
29938;SDS011;16799;50.844;5.304;2022-08-19T11:51:22;6.63;;;4.63;;
29938;SDS011;16799;50.844;5.304;2022-08-19T11:53:49;5.60;;;4.80;;
29938;SDS011;16799;50.844;5.304;2022-08-19T11:56:16;4.70;;;4.30;;
29938;SDS011;16799;50.844;5.304;2022-08-19T11:58:43;5.17;;;4.77;;
29938;SDS011;16799;50.844;5.304;2022-08-19T12:01:10;5.10;;;4.60;;
29938;SDS011;16799;50.844;5.304;2022-08-19T12:03:37;4.90;;;4.60;;
29938;SDS011;16799;50.844;5.304;2022-08-19T12:06:07;8.07;;;6.10;;
29938;SDS011;16799;50.844;5.304;2022-08-19T12:08:35;6.23;;;5.63;;
29938;SDS011;16799;50.844;5.304;2022-08-19T12:11:01;7.17;;;6.10;;
29938;SDS011;16799;50.844;5.304;2022-08-19T12:13:27;6.23;;;5.73;;
29938;SDS011;16799;50.844;5.304;2022-08-19T12:15:55;5.00;;;4.70;;
29938;SDS011;16799;50.844;5.304;2022-08-19T12:18:21;4.53;;;4.33;;
29938;SDS011;16799;50.844;5.304;2022-08-19T12:20:47;4.17;;;3.87;;
29938;SDS011;16799;50.844;5.304;2022-08-19T12:23:16;3.50;;;3.30;;
29938;SDS011;16799;50.844;5.304;2022-08-19T12:25:45;5.63;;;3.90;;
29938;SDS011;16799;50.844;5.304;2022-08-19T12:28:15;5.20;;;4.70;;
29938;SDS011;16799;50.844;5.304;2022-08-19T12:30:41;9.40;;;4.50;;
29938;SDS011;16799;50.844;5.304;2022-08-19T12:33:07;4.53;;;4.13;;
29938;SDS011;16799;50.844;5.304;2022-08-19T12:35:33;5.23;;;4.20;;
29938;SDS011;16799;50.844;5.304;2022-08-19T12:37:59;4.00;;;3.40;;
29938;SDS011;16799;50.844;5.304;2022-08-19T12:40:26;4.73;;;4.27;;
29938;SDS011;16799;50.844;5.304;2022-08-19T12:42:52;4.27;;;3.40;;
29938;SDS011;16799;50.844;5.304;2022-08-19T12:45:18;5.93;;;4.40;;
29938;SDS011;16799;50.844;5.304;2022-08-19T12:47:44;5.23;;;4.67;;
29938;SDS011;16799;50.844;5.304;2022-08-19T12:50:11;7.60;;;4.30;;
29938;SDS011;16799;50.844;5.304;2022-08-19T12:52:37;6.53;;;4.67;;
29938;SDS011;16799;50.844;5.304;2022-08-19T12:55:04;5.03;;;4.63;;
29938;SDS011;16799;50.844;5.304;2022-08-19T12:57:31;6.23;;;5.07;;
29938;SDS011;16799;50.844;5.304;2022-08-19T13:00:00;5.47;;;5.00;;
29938;SDS011;16799;50.844;5.304;2022-08-19T13:02:30;10.40;;;5.10;;
29938;SDS011;16799;50.844;5.304;2022-08-19T13:04:57;5.30;;;4.70;;
29938;SDS011;16799;50.844;5.304;2022-08-19T13:07:23;7.90;;;6.13;;
29938;SDS011;16799;50.844;5.304;2022-08-19T13:09:50;5.07;;;4.57;;
29938;SDS011;16799;50.844;5.304;2022-08-19T13:12:16;4.13;;;3.83;;
29938;SDS011;16799;50.844;5.304;2022-08-19T13:14:45;4.50;;;4.20;;
29938;SDS011;16799;50.844;5.304;2022-08-19T13:17:14;4.23;;;3.93;;
29938;SDS011;16799;50.844;5.304;2022-08-19T13:19:40;5.53;;;4.50;;
29938;SDS011;16799;50.844;5.304;2022-08-19T13:22:06;4.70;;;4.40;;
29938;SDS011;16799;50.844;5.304;2022-08-19T13:24:32;9.30;;;4.97;;
29938;SDS011;16799;50.844;5.304;2022-08-19T13:26:58;4.90;;;4.40;;
29938;SDS011;16799;50.844;5.304;2022-08-19T13:29:24;4.57;;;4.17;;
29938;SDS011;16799;50.844;5.304;2022-08-19T13:32:10;2.90;;;2.70;;
29938;SDS011;16799;50.844;5.304;2022-08-19T13:34:55;6.50;;;4.03;;
29938;SDS011;16799;50.844;5.304;2022-08-19T13:37:21;4.73;;;3.43;;
29938;SDS011;16799;50.844;5.304;2022-08-19T13:40:07;3.70;;;3.50;;
29938;SDS011;16799;50.844;5.304;2022-08-19T13:42:52;4.90;;;3.73;;
29938;SDS011;16799;50.844;5.304;2022-08-19T13:45:20;4.93;;;3.67;;
29938;SDS011;16799;50.844;5.304;2022-08-19T13:47:48;3.60;;;3.40;;
29938;SDS011;16799;50.844;5.304;2022-08-19T13:50:19;7.23;;;4.53;;
29938;SDS011;16799;50.844;5.304;2022-08-19T13:52:47;4.83;;;4.03;;
29938;SDS011;16799;50.844;5.304;2022-08-19T13:55:14;3.87;;;3.57;;
29938;SDS011;16799;50.844;5.304;2022-08-19T13:57:40;3.80;;;3.50;;
29938;SDS011;16799;50.844;5.304;2022-08-19T14:00:11;6.63;;;3.80;;
29938;SDS011;16799;50.844;5.304;2022-08-19T14:02:39;4.93;;;4.00;;
29938;SDS011;16799;50.844;5.304;2022-08-19T14:05:05;5.23;;;4.83;;
29938;SDS011;16799;50.844;5.304;2022-08-19T14:07:33;4.63;;;4.33;;
29938;SDS011;16799;50.844;5.304;2022-08-19T14:09:59;6.13;;;4.77;;
29938;SDS011;16799;50.844;5.304;2022-08-19T14:12:25;6.60;;;5.40;;
29938;SDS011;16799;50.844;5.304;2022-08-19T14:14:51;6.67;;;6.07;;
29938;SDS011;16799;50.844;5.304;2022-08-19T14:17:16;6.57;;;5.53;;
29938;SDS011;16799;50.844;5.304;2022-08-19T14:19:42;10.87;;;6.40;;
29938;SDS011;16799;50.844;5.304;2022-08-19T14:22:08;6.03;;;5.03;;
29938;SDS011;16799;50.844;5.304;2022-08-19T14:24:34;8.37;;;4.70;;
29938;SDS011;16799;50.844;5.304;2022-08-19T14:27:03;7.10;;;6.40;;
29938;SDS011;16799;50.844;5.304;2022-08-19T14:29:29;4.00;;;3.80;;
29938;SDS011;16799;50.844;5.304;2022-08-19T14:31:55;5.80;;;5.40;;
29938;SDS011;16799;50.844;5.304;2022-08-19T14:34:24;5.40;;;4.40;;
29938;SDS011;16799;50.844;5.304;2022-08-19T14:36:51;4.47;;;4.23;;
29938;SDS011;16799;50.844;5.304;2022-08-19T14:39:17;6.90;;;5.27;;
29938;SDS011;16799;50.844;5.304;2022-08-19T14:41:43;4.73;;;4.43;;
29938;SDS011;16799;50.844;5.304;2022-08-19T14:44:10;5.40;;;4.90;;